Greymouth, New Zealand
Current Conditions -  °F | °C
As of 8:30 AM on Friday 24 Oct 2014 (Local Time) from NZCH Reporting Station
Clear Clear  
Wind Chill: 50°   Ceiling: Unl
Heat Index: 50°   Visibility: 6mi
Dew Point: 32°   Wind: 22mph
Humidity: 50%   Direction: 220°SW
Pressure: 29.94"   Gusts: 33mph
Location:  42.46°S, 171.21°E
Report Text: NZCH 232030Z AUTO 22019G29KT 9999 NCD 10/00 Q1014 NOSIG
Loading
Personal Weather Stations






























Interactive Weather Map New forecast layout! Learn more

10-Day Weather Forecast

Advertisements
Track Severe Weather on mobile